• Join FlightAware (Why Join?)
  • Login
  • US Flag 
09:25AM EDT


 

Airport Tracker/Info


-or-


 

Live Flight TrackerFlight Track Log ✈ SWA975 ✈ 20-Apr-2013 ✈ KTPA - KSDF

Flight Track Log - Related Links

Times and Time Zones

All times are in EDT time to prevent confusion due to time zone crossing. See the SWA975 flight status page for this flight to view local times or setup timezone preferences in your user account.

Time Position Orientation Groundspeed Altitude Reporting Facility
EDT Latitude Longitude Course Direction KTS MPH feet Rate Location/Type
02:10PM 28.0500 -82.5333 360° North 205 236 2,900  Level Tampa TRACON
02:12PM 28.1706 -82.5983 335° Northwest 272 313 7,700 2,640 Climbing Jacksonville Center
02:13PM 28.2353 -82.6475 326° Northwest 272 313 11,000 3,360 Climbing Jacksonville Center
02:14PM 28.3042 -82.7039 324° Northwest 289 333 14,500 3,120 Climbing Jacksonville Center
02:15PM 28.3731 -82.7581 325° Northwest 294 338 17,300 2,040 Climbing Jacksonville Center
02:16PM 28.4650 -82.7958 340° North 360 414 18,600 1,920 Climbing Jacksonville Center
02:17PM 28.5839 -82.8192 350° North 367 422 21,200 2,280 Climbing Jacksonville Center
02:18PM 28.6861 -82.8381 351° North 398 458 23,300 1,800 Climbing Jacksonville Center
02:19PM 28.8031 -82.8667 348° North 414 476 24,800 1,560 Climbing Jacksonville Center
02:20PM 28.9242 -82.8925 349° North 426 490 26,500 1,500 Climbing Jacksonville Center
02:21PM 29.0514 -82.9233 348° North 446 513 27,900 1,440 Climbing Jacksonville Center
02:22PM 29.1808 -82.9519 349° North 457 526 29,400 1,020 Climbing Jacksonville Center
02:23PM 29.3125 -82.9831 348° North 468 539 30,000 300 Climbing Jacksonville Center
02:24PM 29.4439 -83.0142 348° North 473 544 30,000  Level Jacksonville Center
02:25PM 29.5775 -83.0456 348° North 480 552 30,000 480 Level Jacksonville Center
02:26PM 29.7006 -83.0958 340° North 475 547 31,000 1,260 Climbing Jacksonville Center
02:27PM 29.8236 -83.1558 337° Northwest 469 540 32,600 1,620 Climbing Jacksonville Center
02:28PM 29.9425 -83.2114 338° Northwest 469 540 34,300 1,800 Climbing Jacksonville Center
02:29PM 30.0739 -83.2694 339° North 469 540 36,300 1,560 Climbing Jacksonville Center
02:30PM 30.1928 -83.3253 338° Northwest 463 533 37,500 840 Climbing Jacksonville Center
02:31PM 30.3094 -83.3811 338° Northwest 458 527 38,000 240 Climbing Jacksonville Center
02:32PM 30.4283 -83.4203 344° North 452 520 38,000  Level Jacksonville Center
02:33PM 30.5556 -83.4569 346° North 452 520 38,000  Level Jacksonville Center
02:34PM 30.6786 -83.4964 345° North 452 520 38,000  Level Jacksonville Center
02:35PM 30.8036 -83.5336 346° North 452 520 38,000  Level Jacksonville Center
02:37PM 31.0300 -83.6075 344° North 450 518 38,000  Level Atlanta Center
02:38PM 31.1533 -83.6483 344° North 456 525 38,000  Level Atlanta Center
02:39PM 31.2786 -83.6867 345° North 456 525 38,000  Level Atlanta Center
02:40PM 31.4019 -83.7250 345° North 456 525 38,000  Level Atlanta Center
02:41PM 31.5272 -83.7636 345° North 456 525 38,000  Level Atlanta Center
02:42PM 31.6503 -83.7972 347° North 456 525 38,000  Level Atlanta Center
02:43PM 31.7903 -83.8458 344° North 456 525 38,000  Level Atlanta Center
02:44PM 31.9136 -83.8847 345° North 456 525 38,000  Level Atlanta Center
02:45PM 32.0347 -83.9236 345° North 451 519 38,000  Level Atlanta Center
02:46PM 32.1597 -83.9628 345° North 451 519 38,000  Level Atlanta Center
02:47PM 32.2872 -84.0044 345° North 461 531 38,000  Level Atlanta Center
02:48PM 32.4125 -84.0439 345° North 461 531 38,000  Level Atlanta Center
02:49PM 32.5378 -84.0856 344° North 461 531 38,000  Level Atlanta Center
02:50PM 32.6669 -84.1253 345° North 461 531 38,000  Level Atlanta Center
02:51PM 32.7944 -84.1650 345° North 466 536 38,000  Level Atlanta Center
02:52PM 32.9217 -84.2072 344° North 471 542 38,000  Level Atlanta Center
02:53PM 33.0511 -84.2494 345° North 471 542 38,000  Level Atlanta Center
02:54PM 33.1783 -84.2919 344° North 471 542 38,000  Level Atlanta Center
02:55PM 33.3075 -84.3322 345° North 471 542 38,000  Level Atlanta Center
02:56PM 33.4203 -84.3697 344° North 471 542 38,000  Level Atlanta Center
02:57PM 33.5494 -84.4128 344° North 471 542 38,000  Level Atlanta Center
02:58PM 33.6872 -84.4533 346° North 471 542 38,000  Level Atlanta Center
02:59PM 33.8164 -84.4839 349° North 477 549 38,000  Level Atlanta Center
03:00PM 33.9500 -84.5144 349° North 469 540 38,000  Level Atlanta Center
03:01PM 34.0667 -84.5428 349° North 474 545 38,000  Level Atlanta Center
03:02PM 34.2106 -84.5764 349° North 479 551 38,000  Level Atlanta Center
03:03PM 34.3419 -84.6072 349° North 467 537 38,000  Level Atlanta Center
03:04PM 34.4525 -84.6333 349° North 467 537 38,000  Level Atlanta Center
03:05PM 34.5817 -84.6669 348° North 467 537 38,000  Level Atlanta Center
03:06PM 34.7150 -84.6983 349° North 456 525 38,000  Level Atlanta Center
03:07PM 34.8422 -84.7322 348° North 456 525 38,000  Level Atlanta Center
03:08PM 34.9714 -84.7636 349° North 456 525 38,000  Level Atlanta Center
03:09PM 35.0964 -84.7953 348° North 461 531 38,000  Level Atlanta Center
03:10PM 35.2233 -84.8244 349° North 461 531 38,000 -60 Level Atlanta Center
03:11PM 35.3483 -84.8536 349° North 461 531 37,900 -600 Descending Atlanta Center
03:12PM 35.4736 -84.8625 357° North 455 524 36,900 -960 Descending Atlanta Center
03:13PM 35.6050 -84.8664 359° North 460 529 36,000 -480 Descending Atlanta Center
03:14PM 35.7342 -84.8703 359° North 466 536 36,000  Level Atlanta Center
03:15PM 35.8761 -84.8742 359° North 479 551 36,000 -540 Level Atlanta Center
03:17PM 36.1436 -84.8872 358° North 466 536 34,400 -840 Descending Indianapolis Center
03:18PM 36.2700 -84.8922 358° North 457 526 33,400 -1,080 Descending Indianapolis Center
03:19PM 36.3894 -84.9014 356° North 433 498 32,300 -1,080 Descending Indianapolis Center
03:20PM 36.5011 -84.9222 351° North 410 472 31,300 -1,020 Descending Indianapolis Center
03:21PM 36.6111 -84.9431 351° North 400 460 30,300 -1,020 Descending Indianapolis Center
03:22PM 36.7219 -84.9583 354° North 401 461 29,300 -1,140 Descending Indianapolis Center
03:23PM 36.8558 -84.9561 North 400 460 28,000 -1,740 Descending Indianapolis Center
03:24PM 36.9661 -84.9556 360° North 399 459 25,800 -2,400 Descending Indianapolis Center
03:25PM 37.0750 -84.9542 North 394 453 23,200 -2,640 Descending Indianapolis Center
03:26PM 37.1847 -84.9542 360° North 394 453 20,500 -2,640 Descending Indianapolis Center
03:27PM 37.2944 -84.9547 360° North 391 450 17,800 -2,460 Descending Indianapolis Center
03:28PM 37.4025 -84.9542 360° North 387 445 15,500 -2,160 Descending Indianapolis Center
03:29PM 37.5069 -84.9544 360° North 378 435 13,400 -1,860 Descending Indianapolis Center
03:30PM 37.6044 -84.9536 360° North 356 410 11,800 -1,680 Descending Indianapolis Center
03:31PM 37.6900 -85.0022 336° Northwest 305 351 10,000 -900 Descending Indianapolis Center
03:32PM 37.7411 -85.0736 312° West 274 315 10,000  Level Indianapolis Center
03:33PM 37.7903 -85.1414 313° West 264 304 10,000 -60 Level Indianapolis Center
03:35PM 37.8369 -85.1967 317° Northwest 266 306 9,900 -900 Descending Indianapolis Center
03:36PM 37.9039 -85.2678 320° Northwest 255 293 8,200 -1,800 Descending FAA TRACON SMA TRACON (SMA)
03:36PM 37.9244 -85.2906 319° Northwest 255 293 7,400 -1,980 Descending FAA TRACON SMA TRACON (SMA)
03:36PM 37.9450 -85.3139 318° Northwest 257 296 6,700 -1,500 Descending FAA TRACON SMA TRACON (SMA)
03:37PM 37.9569 -85.3283 316° Northwest 260 299 6,400 -1,260 Descending FAA TRACON SMA TRACON (SMA)
03:37PM 37.9733 -85.3469 318° Northwest 257 296 6,000 -1,140 Descending FAA TRACON SMA TRACON (SMA)
03:37PM 37.9894 -85.3653 318° Northwest 253 291 5,700 -1,200 Descending FAA TRACON SMA TRACON (SMA)
03:38PM 38.0089 -85.3878 318° Northwest 248 285 5,200 -1,260 Descending FAA TRACON SMA TRACON (SMA)
03:38PM 38.0242 -85.4061 317° Northwest 246 283 4,900 -1,260 Descending FAA TRACON SMA TRACON (SMA)
03:38PM 38.0397 -85.4236 318° Northwest 243 280 4,400 -1,380 Descending FAA TRACON SMA TRACON (SMA)
03:39PM 38.0586 -85.4458 317° Northwest 241 277 4,000 -600 Descending FAA TRACON SMA TRACON (SMA)
03:39PM 38.0731 -85.4633 316° Northwest 236 272 4,000  Level FAA TRACON SMA TRACON (SMA)
03:39PM 38.0869 -85.4792 318° Northwest 222 255 4,000  Level FAA TRACON SMA TRACON (SMA)
03:40PM 38.1028 -85.4972 318° Northwest 202 232 4,000 -180 Level FAA TRACON SMA TRACON (SMA)
03:40PM 38.1125 -85.5122 309° West 186 214 3,900 -660 Descending FAA TRACON SMA TRACON (SMA)
03:40PM 38.1197 -85.5303 297° West 184 212 3,600 -900 Descending FAA TRACON SMA TRACON (SMA)
03:41PM 38.1256 -85.5533 288° West 183 211 3,300 -900 Descending FAA TRACON SMA TRACON (SMA)
03:41PM 38.1272 -85.5728 276° West 184 212 3,000 -1,080 Descending FAA TRACON SMA TRACON (SMA)
03:41PM 38.1336 -85.5956 290° West 179 206 2,600 -900 Descending FAA TRACON SMA TRACON (SMA)
03:42PM 38.1394 -85.6133 293° West 178 205 2,400 -480 Descending FAA TRACON SMA TRACON (SMA)
03:42PM 38.1447 -85.6317 290° West 178 205 2,300 -780 Descending FAA TRACON SMA TRACON (SMA)
03:42PM 38.1500 -85.6500 290° West 178 205 1,900 -1,200 Descending FAA TRACON SMA TRACON (SMA)
03:43PM 38.1564 -85.6708 291° West 168 193 1,500 -900 Descending FAA TRACON SMA TRACON (SMA)
03:43PM 38.1611 -85.6853 293° West 151 174 1,300 -780 Descending FAA TRACON SMA TRACON (SMA)
03:43PM 38.1656 -85.6989 293° West 137 158 1,000 -960 Descending FAA TRACON SMA TRACON (SMA)
03:44PM 38.1708 -85.7156 292° West 132 152 700 -900 Descending FAA TRACON SMA TRACON (SMA)